sensor_id;sensor_type;location;lat;lon;timestamp;pressure;altitude;pressure_sealevel;temperature;humidity
24996;BME280;13016;52.162;21.034;2023-03-21T00:01:24;100250.61;;;14.09;63.17
24996;BME280;13016;52.162;21.034;2023-03-21T00:03:50;100249.63;;;14.17;62.96
24996;BME280;13016;52.162;21.034;2023-03-21T00:06:16;100249.74;;;14.13;62.79
24996;BME280;13016;52.162;21.034;2023-03-21T00:08:41;100249.82;;;14.03;63.03
24996;BME280;13016;52.162;21.034;2023-03-21T00:11:08;100246.98;;;14.01;63.17
24996;BME280;13016;52.162;21.034;2023-03-21T00:13:34;100244.00;;;14.07;63.25
24996;BME280;13016;52.162;21.034;2023-03-21T00:16:17;100241.05;;;14.04;63.05
24996;BME280;13016;52.162;21.034;2023-03-21T00:19:02;100237.35;;;14.06;63.37
24996;BME280;13016;52.162;21.034;2023-03-21T00:21:48;100233.04;;;14.11;62.71
24996;BME280;13016;52.162;21.034;2023-03-21T00:24:13;100232.39;;;13.99;63.04
24996;BME280;13016;52.162;21.034;2023-03-21T00:26:38;100231.64;;;14.07;63.14
24996;BME280;13016;52.162;21.034;2023-03-21T00:29:03;100231.19;;;14.10;62.88
24996;BME280;13016;52.162;21.034;2023-03-21T00:31:29;100226.70;;;14.00;62.90
24996;BME280;13016;52.162;21.034;2023-03-21T00:33:55;100231.11;;;13.95;63.19
24996;BME280;13016;52.162;21.034;2023-03-21T00:36:20;100225.14;;;14.01;63.31
24996;BME280;13016;52.162;21.034;2023-03-21T00:38:45;100227.98;;;14.04;63.22
24996;BME280;13016;52.162;21.034;2023-03-21T00:41:12;100225.94;;;14.07;63.01
24996;BME280;13016;52.162;21.034;2023-03-21T00:43:37;100227.81;;;13.99;63.03
24996;BME280;13016;52.162;21.034;2023-03-21T00:46:03;100227.92;;;14.02;62.94
24996;BME280;13016;52.162;21.034;2023-03-21T00:48:29;100229.87;;;13.95;62.88
24996;BME280;13016;52.162;21.034;2023-03-21T00:50:56;100228.17;;;14.03;63.06
24996;BME280;13016;52.162;21.034;2023-03-21T00:53:22;100228.05;;;14.09;62.80
24996;BME280;13016;52.162;21.034;2023-03-21T00:55:48;100225.08;;;13.91;62.97
24996;BME280;13016;52.162;21.034;2023-03-21T00:58:14;100227.38;;;13.91;63.11
24996;BME280;13016;52.162;21.034;2023-03-21T01:00:40;100228.39;;;13.92;63.15
24996;BME280;13016;52.162;21.034;2023-03-21T01:03:06;100228.17;;;13.92;63.32
24996;BME280;13016;52.162;21.034;2023-03-21T01:05:36;100225.22;;;13.89;63.34
24996;BME280;13016;52.162;21.034;2023-03-21T01:08:01;100225.88;;;13.90;63.50
24996;BME280;13016;52.162;21.034;2023-03-21T01:10:27;100226.10;;;13.92;63.47
24996;BME280;13016;52.162;21.034;2023-03-21T01:12:52;100225.26;;;13.82;63.60
24996;BME280;13016;52.162;21.034;2023-03-21T01:15:17;100223.68;;;13.74;64.02
24996;BME280;13016;52.162;21.034;2023-03-21T01:17:43;100223.53;;;13.62;64.30
24996;BME280;13016;52.162;21.034;2023-03-21T01:20:09;100223.22;;;13.66;64.59
24996;BME280;13016;52.162;21.034;2023-03-21T01:22:34;100222.42;;;13.72;64.38
24996;BME280;13016;52.162;21.034;2023-03-21T01:24:59;100216.95;;;13.72;64.19
24996;BME280;13016;52.162;21.034;2023-03-21T01:27:25;100218.58;;;13.67;64.35
24996;BME280;13016;52.162;21.034;2023-03-21T01:29:50;100217.38;;;13.66;64.26
24996;BME280;13016;52.162;21.034;2023-03-21T01:32:15;100215.11;;;13.64;64.29
24996;BME280;13016;52.162;21.034;2023-03-21T01:34:41;100210.91;;;13.63;64.34
24996;BME280;13016;52.162;21.034;2023-03-21T01:37:06;100218.21;;;13.60;64.41
24996;BME280;13016;52.162;21.034;2023-03-21T01:39:31;100213.46;;;13.55;64.31
24996;BME280;13016;52.162;21.034;2023-03-21T01:41:57;100214.37;;;13.43;64.71
24996;BME280;13016;52.162;21.034;2023-03-21T01:44:22;100215.67;;;13.49;64.70
24996;BME280;13016;52.162;21.034;2023-03-21T01:46:49;100213.27;;;13.48;64.65
24996;BME280;13016;52.162;21.034;2023-03-21T01:49:19;100207.23;;;13.48;64.79
24996;BME280;13016;52.162;21.034;2023-03-21T01:51:52;100208.36;;;13.45;64.71
24996;BME280;13016;52.162;21.034;2023-03-21T01:54:23;100203.04;;;13.46;64.75
24996;BME280;13016;52.162;21.034;2023-03-21T01:56:52;100202.91;;;13.52;64.65
24996;BME280;13016;52.162;21.034;2023-03-21T01:59:24;100199.20;;;13.42;64.65
24996;BME280;13016;52.162;21.034;2023-03-21T02:01:52;100196.70;;;13.45;64.86
24996;BME280;13016;52.162;21.034;2023-03-21T02:04:18;100194.17;;;13.43;64.57
24996;BME280;13016;52.162;21.034;2023-03-21T02:07:04;100195.73;;;13.39;64.50
24996;BME280;13016;52.162;21.034;2023-03-21T02:09:32;100193.95;;;13.32;64.31
24996;BME280;13016;52.162;21.034;2023-03-21T02:11:59;100195.27;;;13.31;64.55
24996;BME280;13016;52.162;21.034;2023-03-21T02:14:29;100196.67;;;13.31;64.51
24996;BME280;13016;52.162;21.034;2023-03-21T02:17:07;100196.48;;;13.22;64.48
24996;BME280;13016;52.162;21.034;2023-03-21T02:27:24;100196.73;;;13.26;64.45
24996;BME280;13016;52.162;21.034;2023-03-21T02:30:05;100196.73;;;13.26;64.28
24996;BME280;13016;52.162;21.034;2023-03-21T02:35:21;100193.70;;;13.28;64.39
24996;BME280;13016;52.162;21.034;2023-03-21T02:38:05;100194.30;;;13.39;64.46
24996;BME280;13016;52.162;21.034;2023-03-21T02:40:46;100194.10;;;13.44;64.14
24996;BME280;13016;52.162;21.034;2023-03-21T02:46:01;100200.05;;;13.33;64.12
24996;BME280;13016;52.162;21.034;2023-03-21T02:48:38;100197.56;;;13.27;64.52
24996;BME280;13016;52.162;21.034;2023-03-21T02:51:09;100201.22;;;13.28;64.68
24996;BME280;13016;52.162;21.034;2023-03-21T02:53:41;100201.17;;;13.30;64.77
24996;BME280;13016;52.162;21.034;2023-03-21T02:56:09;100201.37;;;13.25;64.77
24996;BME280;13016;52.162;21.034;2023-03-21T02:58:34;100200.27;;;13.26;65.05
24996;BME280;13016;52.162;21.034;2023-03-21T03:01:00;100203.84;;;13.33;64.84
24996;BME280;13016;52.162;21.034;2023-03-21T03:03:25;100196.82;;;13.32;64.83
24996;BME280;13016;52.162;21.034;2023-03-21T03:05:56;100203.65;;;13.38;64.79
24996;BME280;13016;52.162;21.034;2023-03-21T03:08:40;100205.02;;;13.29;64.61
24996;BME280;13016;52.162;21.034;2023-03-21T03:16:54;100212.30;;;13.24;65.01
24996;BME280;13016;52.162;21.034;2023-03-21T03:19:29;100215.42;;;13.15;65.13
24996;BME280;13016;52.162;21.034;2023-03-21T03:22:00;100217.61;;;13.14;65.40
24996;BME280;13016;52.162;21.034;2023-03-21T03:24:43;100213.29;;;13.13;65.24
24996;BME280;13016;52.162;21.034;2023-03-21T03:27:16;100216.89;;;13.05;65.29
24996;BME280;13016;52.162;21.034;2023-03-21T03:29:45;100217.55;;;12.98;65.48
24996;BME280;13016;52.162;21.034;2023-03-21T03:32:17;100221.73;;;12.99;65.45
24996;BME280;13016;52.162;21.034;2023-03-21T03:34:48;100222.80;;;13.02;65.45
24996;BME280;13016;52.162;21.034;2023-03-21T03:37:17;100217.58;;;13.03;65.16
24996;BME280;13016;52.162;21.034;2023-03-21T03:40:43;100219.91;;;12.90;65.40
24996;BME280;13016;52.162;21.034;2023-03-21T03:42:52;100219.27;;;13.06;65.31
24996;BME280;13016;52.162;21.034;2023-03-21T03:45:21;100221.31;;;13.15;65.05
24996;BME280;13016;52.162;21.034;2023-03-21T03:47:54;100220.29;;;13.17;64.48
24996;BME280;13016;52.162;21.034;2023-03-21T03:50:37;100224.69;;;13.12;64.64
24996;BME280;13016;52.162;21.034;2023-03-21T03:55:35;100228.99;;;13.19;64.35
24996;BME280;13016;52.162;21.034;2023-03-21T03:58:01;100225.34;;;13.13;64.29
24996;BME280;13016;52.162;21.034;2023-03-21T04:00:26;100228.44;;;13.19;64.52
24996;BME280;13016;52.162;21.034;2023-03-21T04:02:52;100226.03;;;13.13;64.38
24996;BME280;13016;52.162;21.034;2023-03-21T04:05:19;100227.36;;;13.05;64.57
24996;BME280;13016;52.162;21.034;2023-03-21T04:07:44;100225.88;;;13.13;64.46
24996;BME280;13016;52.162;21.034;2023-03-21T04:10:09;100227.08;;;13.13;64.26
24996;BME280;13016;52.162;21.034;2023-03-21T04:12:35;100227.03;;;13.12;64.28
24996;BME280;13016;52.162;21.034;2023-03-21T04:15:01;100225.55;;;13.12;64.33
24996;BME280;13016;52.162;21.034;2023-03-21T04:17:26;100223.69;;;13.16;64.41
24996;BME280;13016;52.162;21.034;2023-03-21T04:19:51;100224.21;;;13.18;64.23
24996;BME280;13016;52.162;21.034;2023-03-21T04:22:16;100222.27;;;13.25;64.21
24996;BME280;13016;52.162;21.034;2023-03-21T04:24:42;100221.18;;;13.21;63.96
24996;BME280;13016;52.162;21.034;2023-03-21T04:27:07;100223.66;;;13.12;64.22
24996;BME280;13016;52.162;21.034;2023-03-21T04:29:33;100224.14;;;13.19;64.23
24996;BME280;13016;52.162;21.034;2023-03-21T04:31:58;100226.35;;;13.23;63.91
24996;BME280;13016;52.162;21.034;2023-03-21T04:34:23;100223.36;;;13.32;63.92
24996;BME280;13016;52.162;21.034;2023-03-21T04:36:49;100228.21;;;13.34;63.58
24996;BME280;13016;52.162;21.034;2023-03-21T04:39:15;100228.83;;;13.28;63.66
24996;BME280;13016;52.162;21.034;2023-03-21T04:41:42;100225.70;;;13.18;63.64
24996;BME280;13016;52.162;21.034;2023-03-21T04:44:09;100223.79;;;13.15;63.95
24996;BME280;13016;52.162;21.034;2023-03-21T04:46:35;100229.11;;;13.10;63.81
24996;BME280;13016;52.162;21.034;2023-03-21T04:49:01;100228.56;;;13.08;63.95
24996;BME280;13016;52.162;21.034;2023-03-21T04:51:27;100226.77;;;13.15;64.01
24996;BME280;13016;52.162;21.034;2023-03-21T04:53:53;100230.20;;;13.24;63.95
24996;BME280;13016;52.162;21.034;2023-03-21T04:56:18;100231.80;;;13.24;63.42
24996;BME280;13016;52.162;21.034;2023-03-21T04:58:44;100236.42;;;13.16;63.59
24996;BME280;13016;52.162;21.034;2023-03-21T05:01:09;100234.97;;;13.29;63.48
24996;BME280;13016;52.162;21.034;2023-03-21T05:03:37;100229.46;;;13.34;63.31
24996;BME280;13016;52.162;21.034;2023-03-21T05:06:03;100228.35;;;13.39;63.17
24996;BME280;13016;52.162;21.034;2023-03-21T05:08:28;100232.64;;;13.50;62.75
24996;BME280;13016;52.162;21.034;2023-03-21T05:10:54;100235.34;;;13.52;62.41
24996;BME280;13016;52.162;21.034;2023-03-21T05:13:19;100235.79;;;13.50;62.26
24996;BME280;13016;52.162;21.034;2023-03-21T05:15:44;100241.48;;;13.45;62.30
24996;BME280;13016;52.162;21.034;2023-03-21T05:21:06;100239.08;;;13.45;62.38
24996;BME280;13016;52.162;21.034;2023-03-21T05:24:15;100245.67;;;13.49;62.50
24996;BME280;13016;52.162;21.034;2023-03-21T05:26:59;100247.82;;;13.55;62.29
24996;BME280;13016;52.162;21.034;2023-03-21T05:29:25;100248.73;;;13.41;62.38
24996;BME280;13016;52.162;21.034;2023-03-21T05:31:51;100247.08;;;13.44;62.54
24996;BME280;13016;52.162;21.034;2023-03-21T05:34:16;100249.51;;;13.52;62.35
24996;BME280;13016;52.162;21.034;2023-03-21T05:39:15;100250.79;;;13.56;62.36
24996;BME280;13016;52.162;21.034;2023-03-21T05:41:41;100255.38;;;13.51;62.44
24996;BME280;13016;52.162;21.034;2023-03-21T05:44:06;100259.42;;;13.47;62.53
24996;BME280;13016;52.162;21.034;2023-03-21T05:46:31;100260.16;;;13.54;62.51
24996;BME280;13016;52.162;21.034;2023-03-21T05:48:57;100261.98;;;13.58;62.59
24996;BME280;13016;52.162;21.034;2023-03-21T05:51:22;100263.52;;;13.56;62.38
24996;BME280;13016;52.162;21.034;2023-03-21T05:53:47;100263.17;;;13.51;62.52
24996;BME280;13016;52.162;21.034;2023-03-21T05:56:14;100265.36;;;13.55;62.50
24996;BME280;13016;52.162;21.034;2023-03-21T05:58:39;100271.17;;;13.51;62.62
24996;BME280;13016;52.162;21.034;2023-03-21T06:01:05;100271.66;;;13.49;62.46
24996;BME280;13016;52.162;21.034;2023-03-21T06:03:31;100273.72;;;13.50;62.59
24996;BME280;13016;52.162;21.034;2023-03-21T06:05:56;100278.54;;;13.55;62.84
24996;BME280;13016;52.162;21.034;2023-03-21T06:08:21;100280.41;;;13.56;62.55
24996;BME280;13016;52.162;21.034;2023-03-21T06:10:47;100282.70;;;13.72;61.99
24996;BME280;13016;52.162;21.034;2023-03-21T06:13:12;100286.31;;;13.69;62.28
24996;BME280;13016;52.162;21.034;2023-03-21T06:15:37;100291.17;;;13.68;62.11
24996;BME280;13016;52.162;21.034;2023-03-21T06:23:19;100293.16;;;13.56;62.21
24996;BME280;13016;52.162;21.034;2023-03-21T06:37:10;100300.15;;;14.51;59.43
24996;BME280;13016;52.162;21.034;2023-03-21T06:39:43;100304.61;;;14.78;57.66
24996;BME280;13016;52.162;21.034;2023-03-21T06:44:52;100300.50;;;14.27;58.79
24996;BME280;13016;52.162;21.034;2023-03-21T06:47:25;100305.13;;;14.24;59.33
24996;BME280;13016;52.162;21.034;2023-03-21T06:52:29;100307.59;;;14.24;59.44
24996;BME280;13016;52.162;21.034;2023-03-21T06:55:12;100310.90;;;14.16;59.46
24996;BME280;13016;52.162;21.034;2023-03-21T06:57:38;100315.13;;;14.16;59.37
24996;BME280;13016;52.162;21.034;2023-03-21T07:00:22;100314.21;;;14.17;59.51
24996;BME280;13016;52.162;21.034;2023-03-21T07:11:07;100323.65;;;13.96;59.98
24996;BME280;13016;52.162;21.034;2023-03-21T07:14:41;100323.36;;;14.16;59.78
24996;BME280;13016;52.162;21.034;2023-03-21T07:17:14;100323.70;;;14.16;59.77
24996;BME280;13016;52.162;21.034;2023-03-21T07:19:46;100327.48;;;14.22;59.61
24996;BME280;13016;52.162;21.034;2023-03-21T07:22:12;100327.59;;;14.30;59.33
24996;BME280;13016;52.162;21.034;2023-03-21T07:24:46;100327.23;;;14.25;58.96
24996;BME280;13016;52.162;21.034;2023-03-21T07:27:16;100330.45;;;14.20;58.84
24996;BME280;13016;52.162;21.034;2023-03-21T07:29:49;100329.34;;;14.14;59.01
24996;BME280;13016;52.162;21.034;2023-03-21T07:32:23;100330.59;;;14.09;59.26
24996;BME280;13016;52.162;21.034;2023-03-21T07:34:53;100327.17;;;14.26;59.00
24996;BME280;13016;52.162;21.034;2023-03-21T07:37:22;100327.03;;;14.32;58.87
24996;BME280;13016;52.162;21.034;2023-03-21T07:39:47;100332.92;;;14.13;58.66
24996;BME280;13016;52.162;21.034;2023-03-21T07:42:16;100332.95;;;14.25;58.64
24996;BME280;13016;52.162;21.034;2023-03-21T07:44:49;100332.46;;;14.29;59.07
24996;BME280;13016;52.162;21.034;2023-03-21T07:47:18;100330.80;;;14.39;59.17
24996;BME280;13016;52.162;21.034;2023-03-21T07:49:54;100336.34;;;14.50;59.12
24996;BME280;13016;52.162;21.034;2023-03-21T07:56:11;100332.23;;;14.61;57.86
24996;BME280;13016;52.162;21.034;2023-03-21T08:00:10;100330.63;;;14.61;58.19
24996;BME280;13016;52.162;21.034;2023-03-21T08:02:40;100334.18;;;14.66;58.20
24996;BME280;13016;52.162;21.034;2023-03-21T08:05:10;100335.50;;;14.73;58.42
24996;BME280;13016;52.162;21.034;2023-03-21T08:07:40;100338.30;;;14.81;58.07
24996;BME280;13016;52.162;21.034;2023-03-21T08:10:09;100341.38;;;14.91;57.80
24996;BME280;13016;52.162;21.034;2023-03-21T08:13:42;100342.40;;;14.89;57.57
24996;BME280;13016;52.162;21.034;2023-03-21T08:16:16;100348.13;;;14.89;57.50
24996;BME280;13016;52.162;21.034;2023-03-21T08:21:37;100349.28;;;14.81;55.96
24996;BME280;13016;52.162;21.034;2023-03-21T08:24:07;100346.42;;;14.86;55.98
24996;BME280;13016;52.162;21.034;2023-03-21T08:26:35;100347.69;;;14.95;55.73
24996;BME280;13016;52.162;21.034;2023-03-21T08:30:12;100346.02;;;15.09;55.77
24996;BME280;13016;52.162;21.034;2023-03-21T08:33:44;100348.06;;;15.14;55.43
24996;BME280;13016;52.162;21.034;2023-03-21T08:44:51;100356.33;;;15.48;53.87
24996;BME280;13016;52.162;21.034;2023-03-21T08:48:48;100358.52;;;15.46;53.31
24996;BME280;13016;52.162;21.034;2023-03-21T08:52:14;100359.36;;;15.59;54.29
24996;BME280;13016;52.162;21.034;2023-03-21T08:55:43;100361.35;;;15.80;53.78
24996;BME280;13016;52.162;21.034;2023-03-21T08:59:35;100365.52;;;16.02;53.50
24996;BME280;13016;52.162;21.034;2023-03-21T09:03:04;100369.08;;;16.17;52.77
24996;BME280;13016;52.162;21.034;2023-03-21T09:06:53;100373.02;;;16.35;52.41
24996;BME280;13016;52.162;21.034;2023-03-21T09:10:35;100374.74;;;16.36;51.37
24996;BME280;13016;52.162;21.034;2023-03-21T09:14:27;100378.47;;;16.14;51.64
24996;BME280;13016;52.162;21.034;2023-03-21T09:21:32;100385.98;;;16.07;51.66
24996;BME280;13016;52.162;21.034;2023-03-21T09:25:22;100388.05;;;15.81;52.77
24996;BME280;13016;52.162;21.034;2023-03-21T09:27:53;100391.48;;;15.86;52.65
24996;BME280;13016;52.162;21.034;2023-03-21T09:30:26;100391.79;;;15.80;52.62
24996;BME280;13016;52.162;21.034;2023-03-21T09:32:58;100394.02;;;15.63;52.39
24996;BME280;13016;52.162;21.034;2023-03-21T09:38:11;100399.14;;;15.92;52.48
24996;BME280;13016;52.162;21.034;2023-03-21T09:51:39;100400.15;;;16.01;52.43
24996;BME280;13016;52.162;21.034;2023-03-21T09:54:31;100394.70;;;15.96;52.19
24996;BME280;13016;52.162;21.034;2023-03-21T09:58:07;100399.31;;;15.89;51.78
24996;BME280;13016;52.162;21.034;2023-03-21T10:19:34;100402.57;;;15.78;52.42
24996;BME280;13016;52.162;21.034;2023-03-21T10:33:36;100408.80;;;16.14;51.96
24996;BME280;13016;52.162;21.034;2023-03-21T10:37:03;100416.13;;;16.20;52.30
24996;BME280;13016;52.162;21.034;2023-03-21T10:39:58;100419.26;;;15.76;53.45
24996;BME280;13016;52.162;21.034;2023-03-21T10:43:37;100421.64;;;15.54;53.76
24996;BME280;13016;52.162;21.034;2023-03-21T10:47:33;100418.09;;;15.41;54.32
24996;BME280;13016;52.162;21.034;2023-03-21T10:51:08;100418.82;;;15.14;54.80
24996;BME280;13016;52.162;21.034;2023-03-21T11:05:39;100426.39;;;16.12;53.05
24996;BME280;13016;52.162;21.034;2023-03-21T11:10:58;100427.49;;;15.91;51.12
24996;BME280;13016;52.162;21.034;2023-03-21T11:13:27;100423.63;;;15.82;51.64
24996;BME280;13016;52.162;21.034;2023-03-21T11:32:53;100417.14;;;16.58;49.51
24996;BME280;13016;52.162;21.034;2023-03-21T11:35:27;100413.64;;;16.74;49.30
24996;BME280;13016;52.162;21.034;2023-03-21T11:37:55;100409.96;;;16.58;49.90
24996;BME280;13016;52.162;21.034;2023-03-21T11:40:29;100408.02;;;16.55;50.40
24996;BME280;13016;52.162;21.034;2023-03-21T11:49:58;100404.42;;;16.60;50.93
24996;BME280;13016;52.162;21.034;2023-03-21T11:53:45;100402.46;;;16.60;51.28
24996;BME280;13016;52.162;21.034;2023-03-21T11:57:38;100401.14;;;16.59;51.22
24996;BME280;13016;52.162;21.034;2023-03-21T12:05:57;100401.54;;;16.81;50.65
24996;BME280;13016;52.162;21.034;2023-03-21T12:09:23;100407.80;;;17.09;50.25
24996;BME280;13016;52.162;21.034;2023-03-21T12:13:15;100408.30;;;17.03;50.15
24996;BME280;13016;52.162;21.034;2023-03-21T12:17:05;100401.71;;;17.03;49.96
24996;BME280;13016;52.162;21.034;2023-03-21T12:31:15;100392.58;;;17.81;46.65
24996;BME280;13016;52.162;21.034;2023-03-21T12:39:26;100390.49;;;17.43;47.12
24996;BME280;13016;52.162;21.034;2023-03-21T12:44:21;100388.63;;;17.46;47.31
24996;BME280;13016;52.162;21.034;2023-03-21T12:47:00;100388.58;;;17.37;47.57
24996;BME280;13016;52.162;21.034;2023-03-21T13:00:50;100382.48;;;17.17;46.79
24996;BME280;13016;52.162;21.034;2023-03-21T13:03:36;100379.91;;;16.98;46.98
24996;BME280;13016;52.162;21.034;2023-03-21T13:06:16;100379.30;;;16.94;46.46
24996;BME280;13016;52.162;21.034;2023-03-21T13:08:55;100379.36;;;16.94;47.04
24996;BME280;13016;52.162;21.034;2023-03-21T13:11:29;100383.08;;;17.00;46.99
24996;BME280;13016;52.162;21.034;2023-03-21T13:14:14;100385.58;;;17.12;46.10
24996;BME280;13016;52.162;21.034;2023-03-21T13:17:05;100379.86;;;17.06;46.47
24996;BME280;13016;52.162;21.034;2023-03-21T13:20:00;100380.89;;;17.21;46.18
24996;BME280;13016;52.162;21.034;2023-03-21T13:25:30;100371.51;;;17.18;46.03
24996;BME280;13016;52.162;21.034;2023-03-21T13:28:46;100371.73;;;17.04;46.47
24996;BME280;13016;52.162;21.034;2023-03-21T13:31:25;100373.85;;;17.06;46.48
24996;BME280;13016;52.162;21.034;2023-03-21T13:34:00;100371.27;;;17.25;46.87
24996;BME280;13016;52.162;21.034;2023-03-21T13:36:31;100374.07;;;17.32;46.95
24996;BME280;13016;52.162;21.034;2023-03-21T13:39:05;100368.32;;;17.22;46.56
24996;BME280;13016;52.162;21.034;2023-03-21T13:46:07;100371.87;;;16.88;47.90
24996;BME280;13016;52.162;21.034;2023-03-21T13:51:55;100368.23;;;16.77;48.53
24996;BME280;13016;52.162;21.034;2023-03-21T13:54:29;100367.14;;;16.77;48.84
24996;BME280;13016;52.162;21.034;2023-03-21T13:58:59;100369.05;;;16.88;48.91
24996;BME280;13016;52.162;21.034;2023-03-21T14:02:35;100369.45;;;16.89;48.91
24996;BME280;13016;52.162;21.034;2023-03-21T14:06:53;100368.30;;;17.00;48.54
24996;BME280;13016;52.162;21.034;2023-03-21T14:09:52;100372.89;;;17.25;47.96
24996;BME280;13016;52.162;21.034;2023-03-21T14:12:30;100369.17;;;17.33;47.47
24996;BME280;13016;52.162;21.034;2023-03-21T14:20:36;100371.08;;;17.29;44.55
24996;BME280;13016;52.162;21.034;2023-03-21T14:58:47;100359.00;;;17.44;41.92
24996;BME280;13016;52.162;21.034;2023-03-21T15:01:26;100363.52;;;17.26;43.29
24996;BME280;13016;52.162;21.034;2023-03-21T15:03:52;100366.00;;;17.14;44.11
24996;BME280;13016;52.162;21.034;2023-03-21T15:14:23;100356.81;;;16.67;43.62
24996;BME280;13016;52.162;21.034;2023-03-21T15:19:32;100355.91;;;16.81;44.25
24996;BME280;13016;52.162;21.034;2023-03-21T15:23:30;100351.36;;;16.58;43.12
24996;BME280;13016;52.162;21.034;2023-03-21T15:30:51;100347.96;;;16.52;43.47
24996;BME280;13016;52.162;21.034;2023-03-21T15:34:23;100346.04;;;16.70;42.39
24996;BME280;13016;52.162;21.034;2023-03-21T15:37:52;100350.64;;;16.68;42.33
24996;BME280;13016;52.162;21.034;2023-03-21T15:44:52;100351.31;;;16.48;42.06
24996;BME280;13016;52.162;21.034;2023-03-21T15:47:48;100352.84;;;16.55;42.09
24996;BME280;13016;52.162;21.034;2023-03-21T15:53:05;100352.63;;;16.56;42.15
24996;BME280;13016;52.162;21.034;2023-03-21T15:58:47;100354.14;;;16.57;42.42
24996;BME280;13016;52.162;21.034;2023-03-21T16:12:59;100354.45;;;17.10;41.87
24996;BME280;13016;52.162;21.034;2023-03-21T16:18:16;100354.09;;;17.02;41.74
24996;BME280;13016;52.162;21.034;2023-03-21T16:21:11;100354.27;;;16.87;42.12
24996;BME280;13016;52.162;21.034;2023-03-21T16:23:40;100354.92;;;16.76;42.29
24996;BME280;13016;52.162;21.034;2023-03-21T16:26:05;100358.54;;;16.65;42.58
24996;BME280;13016;52.162;21.034;2023-03-21T16:28:32;100354.75;;;16.56;42.88
24996;BME280;13016;52.162;21.034;2023-03-21T16:30:58;100357.43;;;16.56;42.92
24996;BME280;13016;52.162;21.034;2023-03-21T16:33:24;100353.35;;;16.55;42.92
24996;BME280;13016;52.162;21.034;2023-03-21T16:35:49;100348.52;;;16.49;42.94
24996;BME280;13016;52.162;21.034;2023-03-21T16:38:14;100346.66;;;16.40;43.25
24996;BME280;13016;52.162;21.034;2023-03-21T16:40:41;100349.12;;;16.34;43.44
24996;BME280;13016;52.162;21.034;2023-03-21T16:43:07;100351.21;;;16.28;43.43
24996;BME280;13016;52.162;21.034;2023-03-21T16:45:52;100350.94;;;16.25;43.54
24996;BME280;13016;52.162;21.034;2023-03-21T16:48:20;100351.02;;;16.22;43.52
24996;BME280;13016;52.162;21.034;2023-03-21T16:50:53;100350.44;;;16.15;43.64
24996;BME280;13016;52.162;21.034;2023-03-21T16:53:38;100350.21;;;16.04;43.73
24996;BME280;13016;52.162;21.034;2023-03-21T16:56:44;100350.20;;;15.96;43.89
24996;BME280;13016;52.162;21.034;2023-03-21T16:59:27;100354.63;;;15.83;44.15
24996;BME280;13016;52.162;21.034;2023-03-21T17:02:12;100355.50;;;15.74;44.29
24996;BME280;13016;52.162;21.034;2023-03-21T17:04:47;100357.62;;;15.56;44.72
24996;BME280;13016;52.162;21.034;2023-03-21T17:07:14;100364.11;;;15.49;45.00
24996;BME280;13016;52.162;21.034;2023-03-21T17:09:40;100368.44;;;15.33;45.50
24996;BME280;13016;52.162;21.034;2023-03-21T17:12:14;100371.32;;;15.30;45.64
24996;BME280;13016;52.162;21.034;2023-03-21T17:14:50;100373.74;;;15.24;45.68
24996;BME280;13016;52.162;21.034;2023-03-21T17:17:24;100377.14;;;15.22;45.75
24996;BME280;13016;52.162;21.034;2023-03-21T17:19:52;100378.55;;;15.24;45.71
24996;BME280;13016;52.162;21.034;2023-03-21T17:22:17;100384.69;;;15.14;45.98
24996;BME280;13016;52.162;21.034;2023-03-21T17:24:43;100389.02;;;15.09;46.15
24996;BME280;13016;52.162;21.034;2023-03-21T17:27:12;100388.05;;;15.08;46.18
24996;BME280;13016;52.162;21.034;2023-03-21T17:29:38;100388.59;;;15.05;46.16
24996;BME280;13016;52.162;21.034;2023-03-21T17:32:03;100393.30;;;14.95;46.42
24996;BME280;13016;52.162;21.034;2023-03-21T17:34:29;100393.82;;;14.86;46.62
24996;BME280;13016;52.162;21.034;2023-03-21T17:36:55;100393.25;;;14.82;46.71
24996;BME280;13016;52.162;21.034;2023-03-21T17:39:23;100395.23;;;14.91;46.51
24996;BME280;13016;52.162;21.034;2023-03-21T17:42:14;100394.77;;;14.92;46.48
24996;BME280;13016;52.162;21.034;2023-03-21T18:03:28;100414.21;;;15.51;44.93
24996;BME280;13016;52.162;21.034;2023-03-21T18:24:24;100437.05;;;15.41;45.64
24996;BME280;13016;52.162;21.034;2023-03-21T18:26:52;100439.13;;;15.33;45.49
24996;BME280;13016;52.162;21.034;2023-03-21T18:32:22;100436.06;;;14.75;46.55
24996;BME280;13016;52.162;21.034;2023-03-21T18:34:59;100431.98;;;14.50;47.06
24996;BME280;13016;52.162;21.034;2023-03-21T18:38:15;100435.21;;;14.38;47.58
24996;BME280;13016;52.162;21.034;2023-03-21T18:40:46;100437.82;;;14.27;47.66
24996;BME280;13016;52.162;21.034;2023-03-21T18:46:02;100442.27;;;14.03;48.29
24996;BME280;13016;52.162;21.034;2023-03-21T19:09:09;100441.48;;;14.16;48.17
24996;BME280;13016;52.162;21.034;2023-03-21T19:11:35;100438.09;;;13.99;48.40
24996;BME280;13016;52.162;21.034;2023-03-21T19:14:01;100440.77;;;13.82;48.75
24996;BME280;13016;52.162;21.034;2023-03-21T19:16:47;100441.27;;;13.59;49.44
24996;BME280;13016;52.162;21.034;2023-03-21T19:19:12;100436.16;;;13.48;49.83
24996;BME280;13016;52.162;21.034;2023-03-21T19:21:38;100433.34;;;13.39;50.15
24996;BME280;13016;52.162;21.034;2023-03-21T19:24:05;100432.98;;;13.27;50.51
24996;BME280;13016;52.162;21.034;2023-03-21T19:26:30;100431.78;;;13.14;50.92
24996;BME280;13016;52.162;21.034;2023-03-21T19:28:56;100432.05;;;13.27;50.74